Time;durP1;ratioP1;P1;durP2;ratioP2;P2;SDS_P1;SDS_P2;PMS_P1;PMS_P2;Temp;Humidity;BMP_temperature;BMP_pressure;BME280_temperature;BME280_humidity;BME280_pressure;Samples;Min_cycle;Max_cycle;Signal;HPM_P1;HPM_P2
2022/05/08 00:02:19;;;;;;;6.65;4.53;;;12.30;99.90;;;;;;5054990;28;20052;-71
2022/05/08 00:04:50;;;;;;;8.10;4.78;;;12.30;99.90;;;;;;5054658;28;20411;-71
2022/05/08 00:07:20;;;;;;;7.63;4.70;;;12.30;99.90;;;;;;5054696;28;20036;-71
2022/05/08 00:09:47;;;;;;;5.40;4.57;;;12.30;99.90;;;;;;5054901;28;20045;-71
2022/05/08 00:12:15;;;;;;;6.60;4.15;;;12.30;99.90;;;;;;5055178;28;20464;-70
2022/05/08 00:14:42;;;;;;;10.02;4.53;;;12.20;99.90;;;;;;5037378;28;20052;-71
2022/05/08 00:17:13;;;;;;;5.80;4.32;;;12.30;99.90;;;;;;5053648;28;20068;-71
2022/05/08 00:19:40;;;;;;;5.15;4.00;;;12.30;99.90;;;;;;5055507;28;20074;-70
2022/05/08 00:22:07;;;;;;;6.90;4.32;;;12.30;99.90;;;;;;5053701;28;20041;-71
2022/05/08 00:24:55;;;;;;;7.63;5.45;;;12.20;99.90;;;;;;5040694;28;20439;-70
2022/05/08 00:27:22;;;;;;;8.73;4.75;;;12.20;99.90;;;;;;5053338;28;20044;-69
2022/05/08 00:29:49;;;;;;;7.35;4.88;;;12.10;99.90;;;;;;5053504;28;20060;-70
2022/05/08 00:32:16;;;;;;;9.80;5.32;;;12.00;99.90;;;;;;5053575;28;20037;-70
2022/05/08 00:34:43;;;;;;;9.43;5.43;;;11.90;99.90;;;;;;5055232;28;20371;-70
2022/05/08 00:37:10;;;;;;;9.65;5.57;;;11.90;99.90;;;;;;5053496;28;20461;-70
2022/05/08 00:39:37;;;;;;;10.63;5.40;;;11.90;99.90;;;;;;5055306;28;20460;-70
2022/05/08 00:42:04;;;;;;;7.05;4.88;;;11.90;99.90;;;;;;5053311;28;20045;-70
2022/05/08 00:44:31;;;;;;;11.40;6.50;;;11.80;99.90;;;;;;5054227;28;20053;-71
2022/05/08 00:46:58;;;;;;;10.55;6.00;;;11.70;99.90;;;;;;5054148;28;20041;-70
2022/05/08 00:49:25;;;;;;;8.35;5.53;;;11.70;99.90;;;;;;5054741;28;20041;-70
2022/05/08 00:51:52;;;;;;;10.10;5.38;;;11.70;99.90;;;;;;5054017;28;20044;-70
2022/05/08 00:54:19;;;;;;;8.57;5.05;;;11.70;99.90;;;;;;5053006;28;20151;-70
2022/05/08 00:56:45;;;;;;;11.55;6.05;;;11.60;99.90;;;;;;5052749;28;20047;-70
2022/05/08 00:59:12;;;;;;;9.23;5.65;;;11.50;99.90;;;;;;5053697;28;20049;-70
2022/05/08 01:01:39;;;;;;;12.38;5.38;;;11.50;99.90;;;;;;5036216;28;20053;-69
2022/05/08 01:04:06;;;;;;;10.68;5.55;;;11.50;99.90;;;;;;5053830;28;20047;-70
2022/05/08 01:06:33;;;;;;;8.98;5.55;;;11.40;99.90;;;;;;5053762;28;20094;-70
2022/05/08 01:09:00;;;;;;;12.88;7.50;;;11.40;99.90;;;;;;5052880;28;20040;-70
2022/05/08 01:11:27;;;;;;;7.63;5.22;;;11.40;99.90;;;;;;5053939;28;20048;-70
2022/05/08 01:13:54;;;;;;;8.82;5.88;;;11.40;99.90;;;;;;5053003;28;20048;-70
2022/05/08 01:16:21;;;;;;;9.88;5.57;;;11.30;99.90;;;;;;5053947;28;20041;-70
2022/05/08 01:18:49;;;;;;;13.32;7.00;;;11.20;99.90;;;;;;5053466;28;20041;-70
2022/05/08 01:21:17;;;;;;;14.10;6.57;;;11.20;99.90;;;;;;5053666;28;20051;-70
2022/05/08 01:23:45;;;;;;;12.43;6.20;;;11.20;99.90;;;;;;5053532;28;20045;-70
2022/05/08 01:26:12;;;;;;;11.27;6.82;;;11.20;99.90;;;;;;5052550;28;20052;-69
2022/05/08 01:28:39;;;;;;;8.13;5.80;;;11.20;99.90;;;;;;5052195;28;20044;-69
2022/05/08 01:31:06;;;;;;;11.57;6.30;;;11.20;99.90;;;;;;5052461;28;20484;-69
2022/05/08 01:33:33;;;;;;;9.15;6.03;;;11.20;99.90;;;;;;5053690;28;20044;-70
2022/05/08 01:36:01;;;;;;;10.88;5.68;;;11.10;99.90;;;;;;5053523;28;20041;-69
2022/05/08 01:38:28;;;;;;;10.18;6.75;;;11.10;99.90;;;;;;5052031;28;20128;-69
2022/05/08 01:40:55;;;;;;;12.73;6.63;;;11.10;99.90;;;;;;5053658;28;20037;-70
2022/05/08 01:43:23;;;;;;;11.10;6.45;;;11.00;99.90;;;;;;5052330;28;20049;-69
2022/05/08 01:45:54;;;;;;;10.50;6.32;;;11.00;99.90;;;;;;5053271;28;20045;-70
2022/05/08 01:48:25;;;;;;;12.40;7.50;;;11.00;99.90;;;;;;5054354;28;20048;-69
2022/05/08 01:50:54;;;;;;;10.55;6.63;;;10.90;99.90;;;;;;5053078;28;20063;-69
2022/05/08 01:53:22;;;;;;;9.07;6.57;;;10.80;99.90;;;;;;5035397;28;20056;-69
2022/05/08 01:55:55;;;;;;;8.98;5.80;;;10.80;99.90;;;;;;5053132;28;20045;-69
2022/05/08 01:58:26;;;;;;;10.65;7.22;;;10.80;99.90;;;;;;5052987;28;20337;-70
2022/05/08 02:00:53;;;;;;;13.52;6.32;;;10.80;99.90;;;;;;5053139;28;20041;-70
2022/05/08 02:03:22;;;;;;;9.70;6.43;;;10.80;99.90;;;;;;5053796;28;20041;-70
2022/05/08 02:05:49;;;;;;;13.13;7.63;;;10.80;99.90;;;;;;5051914;28;20483;-70
2022/05/08 02:08:16;;;;;;;11.82;7.10;;;10.80;99.90;;;;;;5052909;28;20129;-70
2022/05/08 02:10:43;;;;;;;13.43;8.65;;;10.80;99.90;;;;;;5053358;28;20041;-70
2022/05/08 02:13:10;;;;;;;11.05;7.50;;;10.70;99.90;;;;;;5051761;28;20037;-70
2022/05/08 02:15:37;;;;;;;12.95;7.88;;;10.70;99.90;;;;;;5053319;28;20041;-70
2022/05/08 02:18:08;;;;;;;10.43;7.32;;;10.70;99.90;;;;;;5051756;28;20037;-70
2022/05/08 02:20:37;;;;;;;10.68;6.93;;;10.80;99.90;;;;;;5052571;28;20091;-70
2022/05/08 02:23:04;;;;;;;14.80;7.93;;;10.80;99.90;;;;;;5053117;28;20037;-70
2022/05/08 02:25:30;;;;;;;11.70;7.28;;;10.90;99.90;;;;;;5053204;28;20045;-70
2022/05/08 02:27:57;;;;;;;12.38;7.07;;;10.90;99.90;;;;;;5051981;28;20056;-70
2022/05/08 02:30:25;;;;;;;14.35;8.35;;;10.80;99.90;;;;;;5052878;28;20052;-70
2022/05/08 02:32:53;;;;;;;11.32;7.20;;;10.90;99.90;;;;;;5053096;28;20045;-70
2022/05/08 02:35:21;;;;;;;10.95;7.90;;;10.90;99.90;;;;;;5051907;28;20391;-70
2022/05/08 02:37:52;;;;;;;11.02;8.00;;;10.90;99.90;;;;;;5052754;28;20049;-70
2022/05/08 02:40:20;;;;;;;13.20;8.13;;;10.90;99.90;;;;;;5052417;28;20049;-70
2022/05/08 02:42:47;;;;;;;11.98;8.27;;;10.90;99.90;;;;;;5052567;28;20068;-70
2022/05/08 02:45:14;;;;;;;14.68;8.13;;;10.90;99.90;;;;;;5053017;28;20060;-70
2022/05/08 02:47:41;;;;;;;15.18;9.60;;;10.90;99.90;;;;;;5053387;28;20047;-70
2022/05/08 02:50:11;;;;;;;12.75;8.48;;;10.90;99.90;;;;;;5051410;28;20044;-71
2022/05/08 02:52:39;;;;;;;13.48;8.52;;;10.80;99.90;;;;;;5056010;28;20461;-70
2022/05/08 03:00:38;;;;;;;11.10;8.48;;;11.00;99.90;;;;;;5057065;28;20146;-71
2022/05/08 03:03:08;;;;;;;14.63;9.73;;;11.00;99.90;;;;;;5056246;28;20051;-71
2022/05/08 03:05:35;;;;;;;10.52;8.43;;;11.00;99.90;;;;;;5056095;28;20132;-71
2022/05/08 03:08:02;;;;;;;13.63;8.68;;;10.90;99.90;;;;;;5056246;28;20477;-71
2022/05/08 03:11:25;;;;;;;14.25;9.38;;;10.90;99.90;;;;;;5056091;28;20049;-70
2022/05/08 03:13:16;;;;;;;11.73;8.75;;;10.80;99.90;;;;;;5056002;28;20469;-71
2022/05/08 03:15:43;;;;;;;17.30;9.90;;;10.80;99.90;;;;;;5055064;28;20052;-71
2022/05/08 03:18:10;;;;;;;89.93;80.03;;;10.80;99.90;;;;;;5056713;28;20045;-68
2022/05/08 03:20:37;;;;;;;23.55;18.23;;;10.90;99.90;;;;;;5056012;28;20041;-70
2022/05/08 03:23:04;;;;;;;24.65;20.50;;;10.90;99.90;;;;;;5055667;28;20052;-69
2022/05/08 03:25:30;;;;;;;14.38;10.80;;;10.90;99.90;;;;;;5056108;28;20045;-70
2022/05/08 03:27:57;;;;;;;12.57;9.45;;;10.80;99.90;;;;;;5055681;28;20048;-69
2022/05/08 03:30:25;;;;;;;13.90;9.52;;;10.80;99.90;;;;;;5054750;28;20052;-69
2022/05/08 03:32:52;;;;;;;14.90;9.57;;;10.80;99.90;;;;;;5054744;28;20124;-69
2022/05/08 03:35:19;;;;;;;15.07;10.57;;;10.90;99.90;;;;;;5055565;28;20049;-69
2022/05/08 03:37:47;;;;;;;11.32;9.10;;;10.90;99.90;;;;;;5055485;28;20388;-69
2022/05/08 03:40:13;;;;;;;12.95;10.10;;;10.80;99.90;;;;;;5056584;28;20083;-69
2022/05/08 03:42:41;;;;;;;15.63;10.35;;;10.80;99.90;;;;;;5056284;28;20045;-69
2022/05/08 03:45:09;;;;;;;13.02;9.20;;;10.80;99.90;;;;;;5055758;28;20041;-69
2022/05/08 03:47:36;;;;;;;15.05;8.75;;;10.70;99.90;;;;;;5056349;28;20049;-70
2022/05/08 03:50:06;;;;;;;15.15;8.98;;;10.80;99.90;;;;;;5054336;28;20060;-69
2022/05/08 03:52:34;;;;;;;15.63;8.82;;;10.80;99.90;;;;;;5056324;28;20045;-69
2022/05/08 03:55:02;;;;;;;14.15;8.57;;;10.70;99.90;;;;;;5055114;28;20044;-69
2022/05/08 03:57:29;;;;;;;11.82;7.78;;;10.70;99.90;;;;;;5056250;28;20416;-70
2022/05/08 03:59:57;;;;;;;11.63;8.45;;;10.80;99.90;;;;;;5056071;28;20086;-70
2022/05/08 04:02:24;;;;;;;10.50;7.38;;;10.80;99.90;;;;;;5054256;28;20064;-69
2022/05/08 04:04:51;;;;;;;9.52;6.63;;;10.80;99.90;;;;;;5053492;28;20041;-69
2022/05/08 04:07:18;;;;;;;13.48;9.07;;;10.80;99.90;;;;;;5055316;28;20041;-69
2022/05/08 04:09:45;;;;;;;13.73;9.95;;;10.80;99.90;;;;;;5054813;28;20365;-69
2022/05/08 04:12:12;;;;;;;15.10;10.27;;;10.80;99.90;;;;;;5054916;28;20040;-69
2022/05/08 04:14:39;;;;;;;17.38;11.27;;;10.80;99.90;;;;;;5053691;28;20095;-70
2022/05/08 04:17:06;;;;;;;12.98;9.77;;;10.70;99.90;;;;;;5053598;28;20044;-69
2022/05/08 04:19:33;;;;;;;14.75;10.63;;;10.70;99.90;;;;;;5054628;28;20045;-69
2022/05/08 04:24:45;;;;;;;15.27;9.27;;;10.70;99.90;;;;;;5054862;28;20040;-69
2022/05/08 04:27:12;;;;;;;14.88;9.32;;;10.70;99.90;;;;;;5055736;28;20044;-69
2022/05/08 04:29:39;;;;;;;11.23;8.55;;;10.70;99.90;;;;;;5055063;28;20381;-69
2022/05/08 04:32:06;;;;;;;14.50;9.10;;;10.60;99.90;;;;;;5054436;28;20041;-70
2022/05/08 04:34:33;;;;;;;11.18;6.63;;;10.70;99.90;;;;;;5054509;28;20052;-70
2022/05/08 04:36:59;;;;;;;18.92;8.70;;;10.70;99.90;;;;;;5054332;28;20058;-69
2022/05/08 04:39:26;;;;;;;11.00;6.65;;;10.70;99.90;;;;;;5055221;28;20048;-69
2022/05/08 04:41:53;;;;;;;11.50;7.18;;;10.70;99.90;;;;;;5054880;28;20045;-69
2022/05/08 04:44:20;;;;;;;11.95;7.20;;;10.70;99.90;;;;;;5053145;28;20045;-69
2022/05/08 04:46:47;;;;;;;13.52;7.97;;;10.70;99.90;;;;;;5054185;28;20040;-69
2022/05/08 04:49:14;;;;;;;10.90;8.38;;;10.70;99.90;;;;;;5052986;28;20070;-69
2022/05/08 04:51:41;;;;;;;14.60;8.10;;;10.70;99.90;;;;;;5052912;28;20044;-69
2022/05/08 04:54:08;;;;;;;14.73;9.00;;;10.70;99.90;;;;;;5052910;28;20061;-69
2022/05/08 04:56:35;;;;;;;13.85;8.55;;;10.60;99.90;;;;;;5054823;28;20048;-69
2022/05/08 04:59:02;;;;;;;13.05;9.23;;;10.70;99.90;;;;;;5054754;28;20044;-69
2022/05/08 05:01:29;;;;;;;16.85;8.45;;;10.70;99.90;;;;;;5054227;28;20048;-69
2022/05/08 05:03:56;;;;;;;11.75;8.18;;;10.70;99.90;;;;;;5054017;28;20084;-69
2022/05/08 05:06:24;;;;;;;15.63;8.23;;;10.70;99.90;;;;;;5053817;28;20047;-69
2022/05/08 05:08:51;;;;;;;12.82;7.47;;;10.70;99.90;;;;;;5054544;28;20072;-69
2022/05/08 05:11:19;;;;;;;14.68;8.32;;;10.70;99.90;;;;;;5054081;28;20392;-68
2022/05/08 05:13:46;;;;;;;14.40;8.38;;;10.70;99.90;;;;;;5052429;28;20041;-68
2022/05/08 05:16:12;;;;;;;11.80;7.15;;;10.70;99.90;;;;;;5054353;28;20345;-68
2022/05/08 05:18:42;;;;;;;;;;;10.70;99.90;;;;;;5054750;28;20095;-69
2022/05/08 05:21:09;;;;;;;11.27;7.38;;;10.70;99.90;;;;;;5052040;28;19921;-69
2022/05/08 05:23:36;;;;;;;11.23;7.82;;;10.70;99.90;;;;;;5054568;28;20087;-69
2022/05/08 05:26:03;;;;;;;12.38;8.25;;;10.70;99.90;;;;;;5053453;28;20469;-69
2022/05/08 05:28:31;;;;;;;13.07;8.18;;;10.70;99.90;;;;;;5053383;28;20040;-69
2022/05/08 05:30:58;;;;;;;14.70;8.30;;;10.80;99.90;;;;;;5053675;28;20131;-69
2022/05/08 05:33:25;;;;;;;21.00;11.57;;;10.80;99.90;;;;;;5052502;28;20041;-69
2022/05/08 05:35:52;;;;;;;12.48;8.55;;;10.80;99.90;;;;;;5054012;28;20099;-69
2022/05/08 05:38:19;;;;;;;18.73;8.55;;;10.90;99.90;;;;;;5052037;28;20385;-69
2022/05/08 05:40:46;;;;;;;13.05;9.18;;;10.80;99.90;;;;;;5052079;28;20087;-69
2022/05/08 05:43:12;;;;;;;14.98;8.77;;;10.90;99.90;;;;;;5053276;28;20055;-69
2022/05/08 05:45:40;;;;;;;12.15;7.97;;;10.90;99.90;;;;;;5053549;28;20037;-69
2022/05/08 05:48:07;;;;;;;12.65;8.52;;;10.90;99.90;;;;;;5053491;28;20045;-69
2022/05/08 05:50:34;;;;;;;16.25;10.02;;;10.90;99.90;;;;;;5054219;28;20049;-69
2022/05/08 05:53:01;;;;;;;16.33;11.27;;;10.90;99.90;;;;;;5053985;28;20041;-69
2022/05/08 05:55:28;;;;;;;18.40;10.93;;;10.80;99.90;;;;;;5052793;28;20052;-69
2022/05/08 05:57:56;;;;;;;17.88;11.88;;;10.70;99.90;;;;;;5052395;28;20045;-69
2022/05/08 06:00:22;;;;;;;18.70;11.75;;;10.70;99.90;;;;;;5053697;28;20159;-69
2022/05/08 06:02:49;;;;;;;23.20;12.68;;;10.70;99.90;;;;;;5053923;28;20044;-69
2022/05/08 06:05:16;;;;;;;17.58;11.23;;;10.80;99.90;;;;;;5051956;28;20055;-69
2022/05/08 06:07:43;;;;;;;18.58;12.25;;;10.70;99.90;;;;;;5053666;28;20041;-69
2022/05/08 06:10:11;;;;;;;19.65;12.65;;;10.80;99.90;;;;;;5036615;28;20053;-69
2022/05/08 06:12:38;;;;;;;19.77;9.70;;;10.60;99.90;;;;;;5053557;28;20040;-69
2022/05/08 06:15:08;;;;;;;16.33;9.48;;;10.60;99.90;;;;;;5052012;28;20045;-69
2022/05/08 06:17:35;;;;;;;17.88;9.57;;;10.50;99.90;;;;;;5052864;28;20041;-68
2022/05/08 06:20:03;;;;;;;20.33;9.70;;;10.50;99.90;;;;;;5051750;28;20483;-68
2022/05/08 06:22:31;;;;;;;14.68;8.90;;;10.40;99.90;;;;;;5051919;28;20124;-68
2022/05/08 06:24:58;;;;;;;15.32;7.93;;;10.50;99.90;;;;;;5051712;28;20464;-68
2022/05/08 06:27:25;;;;;;;169.18;129.18;;;10.60;99.90;;;;;;5053964;28;20076;-63
2022/05/08 06:29:52;;;;;;;19.25;13.95;;;10.60;99.90;;;;;;5055943;28;20495;-69
2022/05/08 06:32:21;;;;;;;23.35;10.38;;;10.60;99.90;;;;;;5057029;28;20053;-69
2022/05/08 06:34:48;;;;;;;22.48;9.23;;;10.60;99.90;;;;;;5055858;28;20134;-69
2022/05/08 06:37:15;;;;;;;17.63;8.85;;;10.70;99.90;;;;;;5055753;28;20045;-69
2022/05/08 06:39:42;;;;;;;16.65;7.88;;;10.60;99.90;;;;;;5055374;28;20040;-69
2022/05/08 06:42:09;;;;;;;12.70;7.45;;;10.80;99.90;;;;;;5056568;28;20037;-69
2022/05/08 06:44:36;;;;;;;13.30;7.60;;;10.90;99.90;;;;;;5057618;28;20044;-68
2022/05/08 06:47:04;;;;;;;13.85;6.50;;;11.00;99.90;;;;;;5056498;28;20465;-68
2022/05/08 06:49:31;;;;;;;15.73;7.00;;;11.00;99.90;;;;;;5056417;28;20037;-68
2022/05/08 06:51:58;;;;;;;17.60;6.93;;;11.10;99.90;;;;;;5056693;28;20044;-68
2022/05/08 06:54:26;;;;;;;16.83;6.88;;;11.10;99.90;;;;;;5055306;28;20374;-69
2022/05/08 06:56:55;;;;;;;17.67;7.82;;;11.30;99.90;;;;;;5055345;28;20040;-69
2022/05/08 07:02:09;;;;;;;17.33;6.30;;;11.30;99.90;;;;;;5056006;28;20044;-70
2022/05/08 07:04:36;;;;;;;18.15;7.82;;;11.30;99.90;;;;;;5055330;28;20041;-70
2022/05/08 07:07:03;;;;;;;22.20;8.07;;;11.40;99.90;;;;;;5039512;28;20064;-70
2022/05/08 07:09:33;;;;;;;16.92;7.97;;;11.40;99.90;;;;;;5054953;28;20535;-70
2022/05/08 07:12:00;;;;;;;15.40;7.07;;;11.30;99.90;;;;;;5056321;28;20048;-69
2022/05/08 07:14:28;;;;;;;17.10;7.43;;;11.30;99.90;;;;;;5055896;28;20059;-69
2022/05/08 07:16:55;;;;;;;15.90;5.85;;;11.40;99.90;;;;;;5056119;28;20045;-69
2022/05/08 07:19:22;;;;;;;18.05;6.72;;;11.50;99.90;;;;;;5055001;28;20091;-69
2022/05/08 07:21:48;;;;;;;17.85;6.70;;;11.50;99.90;;;;;;5054579;28;20520;-69
2022/05/08 07:24:20;;;;;;;18.83;6.97;;;11.50;99.90;;;;;;5055836;28;20041;-70
2022/05/08 07:26:47;;;;;;;19.15;6.18;;;11.50;99.90;;;;;;5054825;28;20048;-69
2022/05/08 07:29:15;;;;;;;22.17;7.13;;;11.50;99.90;;;;;;5055750;28;20051;-69
2022/05/08 07:31:43;;;;;;;18.42;7.20;;;11.70;99.90;;;;;;5038001;28;20055;-69
2022/05/08 07:36:56;;;;;;;21.00;6.78;;;11.90;99.90;;;;;;5056337;28;20084;-69
2022/05/08 07:39:23;;;;;;;17.50;7.40;;;11.90;99.90;;;;;;5054615;28;20388;-69
2022/05/08 07:41:49;;;;;;;18.33;6.32;;;11.90;99.90;;;;;;5056010;28;20068;-70
2022/05/08 07:44:17;;;;;;;20.70;7.10;;;11.90;99.90;;;;;;5038067;28;20052;-69
2022/05/08 07:46:44;;;;;;;19.17;6.10;;;12.00;99.90;;;;;;5055531;28;20408;-70
2022/05/08 07:49:11;;;;;;;15.73;6.25;;;12.00;99.90;;;;;;5055227;28;20464;-69
2022/05/08 07:51:38;;;;;;;17.40;5.82;;;12.10;99.90;;;;;;5055239;28;20362;-69
2022/05/08 07:54:05;;;;;;;21.48;6.53;;;12.10;99.90;;;;;;5054398;28;20053;-70
2022/05/08 07:56:32;;;;;;;16.75;6.25;;;12.10;99.90;;;;;;5055382;28;20041;-70
2022/05/08 07:58:59;;;;;;;20.15;5.28;;;12.30;99.90;;;;;;5054624;28;20045;-69
2022/05/08 08:01:25;;;;;;;17.75;5.63;;;12.50;99.90;;;;;;5054088;28;20052;-70
2022/05/08 08:04:12;;;;;;;16.88;5.40;;;12.50;99.90;;;;;;5055007;28;20504;-70
2022/05/08 08:06:40;;;;;;;13.63;5.55;;;12.50;99.90;;;;;;5055428;28;20425;-69
2022/05/08 08:09:08;;;;;;;27.27;7.28;;;12.50;99.90;;;;;;5055475;28;20059;-70
2022/05/08 08:11:35;;;;;;;14.98;5.28;;;12.60;99.90;;;;;;5055172;28;20132;-70
2022/05/08 08:14:02;;;;;;;20.70;5.80;;;12.50;99.90;;;;;;5055376;28;20037;-70
2022/05/08 08:16:29;;;;;;;18.42;5.75;;;12.50;99.90;;;;;;5054779;28;20052;-69
2022/05/08 08:18:58;;;;;;;31.58;14.10;;;12.50;99.90;;;;;;5053717;28;20128;-70
2022/05/08 08:21:25;;;;;;;20.73;6.28;;;12.50;99.90;;;;;;5055648;28;20456;-69
2022/05/08 08:23:52;;;;;;;15.35;5.32;;;12.60;99.90;;;;;;5054644;28;20052;-70
2022/05/08 08:26:18;;;;;;;18.20;6.28;;;12.70;99.90;;;;;;5053611;28;20049;-70
2022/05/08 08:28:45;;;;;;;23.98;6.30;;;12.80;99.90;;;;;;5054530;28;20052;-70
2022/05/08 08:31:12;;;;;;;16.95;6.13;;;12.90;99.90;;;;;;5055262;28;20041;-70
2022/05/08 08:33:40;;;;;;;19.08;5.60;;;13.10;99.90;;;;;;5053176;28;20092;-70
2022/05/08 08:36:08;;;;;;;15.93;6.40;;;13.00;99.90;;;;;;5053078;28;20056;-70
2022/05/08 08:38:35;;;;;;;14.02;5.90;;;13.10;99.90;;;;;;5054379;28;20357;-71
2022/05/08 08:41:04;;;;;;;32.67;14.18;;;13.20;99.90;;;;;;5054039;28;20037;-66
2022/05/08 08:47:42;;;;;;;18.70;8.00;;;13.20;99.90;;;;;;5053087;28;20041;-66
2022/05/08 08:49:23;;;;;;;16.25;5.75;;;13.30;99.90;;;;;;5052881;28;20044;-66
2022/05/08 08:51:50;;;;;;;21.65;6.45;;;13.50;99.90;;;;;;5053620;28;20048;-65
2022/05/08 08:54:19;;;;;;;18.50;6.20;;;13.50;99.90;;;;;;5053638;28;20163;-66
2022/05/08 08:56:49;;;;;;;15.40;5.57;;;13.50;99.90;;;;;;5052854;28;20128;-66
2022/05/08 08:59:21;;;;;;;13.90;5.57;;;13.50;99.90;;;;;;5053931;28;20099;-66
2022/05/08 09:01:48;;;;;;;22.58;5.95;;;13.60;99.90;;;;;;5052809;28;20037;-66
2022/05/08 09:04:18;;;;;;;19.10;6.18;;;13.80;99.90;;;;;;5052591;28;20094;-66
2022/05/08 09:06:45;;;;;;;13.20;5.35;;;14.00;99.90;;;;;;5053178;28;20051;-67
2022/05/08 09:09:39;;;;;;;20.95;5.88;;;14.10;99.90;;;;;;5053467;28;20453;-67
2022/05/08 09:12:15;;;;;;;17.85;5.75;;;14.20;99.90;;;;;;5054201;28;20045;-66
2022/05/08 09:14:42;;;;;;;15.85;5.28;;;14.30;99.90;;;;;;5053867;28;20041;-67
2022/05/08 09:17:09;;;;;;;19.65;5.32;;;14.30;99.90;;;;;;5053592;28;20086;-66
2022/05/08 09:19:40;;;;;;;22.42;6.38;;;14.40;99.90;;;;;;5054444;28;20040;-66
2022/05/08 09:22:09;;;;;;;23.75;7.38;;;14.50;99.90;;;;;;5053619;28;20051;-66
2022/05/08 09:24:36;;;;;;;14.55;5.18;;;14.40;99.90;;;;;;5052369;28;20041;-67
2022/05/08 09:27:16;;;;;;;17.83;6.60;;;14.40;99.90;;;;;;5052380;28;20055;-67
2022/05/08 09:29:43;;;;;;;19.25;6.07;;;14.50;99.90;;;;;;5052387;28;20051;-67
2022/05/08 09:32:38;;;;;;;17.40;5.03;;;14.50;99.90;;;;;;5053409;28;20084;-67
2022/05/08 09:35:06;;;;;;;14.68;4.03;;;14.40;99.90;;;;;;5053676;28;20076;-67
2022/05/08 09:37:33;;;;;;;12.73;4.20;;;14.50;99.90;;;;;;5054328;28;20326;-67
2022/05/08 09:40:18;;;;;;;16.17;4.60;;;14.60;99.90;;;;;;5053321;28;20472;-67
2022/05/08 09:42:46;;;;;;;17.77;4.93;;;14.70;99.90;;;;;;5053298;28;20063;-67
2022/05/08 09:45:14;;;;;;;16.67;5.30;;;14.80;99.90;;;;;;5052929;28;20037;-66
2022/05/08 09:47:42;;;;;;;15.60;5.78;;;14.80;99.90;;;;;;5053178;28;20041;-71
2022/05/08 09:50:09;;;;;;;16.23;5.22;;;14.90;99.90;;;;;;5054126;28;20045;-72
2022/05/08 09:52:39;;;;;;;26.92;13.80;;;15.00;99.90;;;;;;5052199;28;20052;-68
2022/05/08 09:55:07;;;;;;;14.25;4.88;;;15.00;99.90;;;;;;5052235;28;20084;-69
2022/05/08 09:57:34;;;;;;;18.55;5.95;;;14.90;99.90;;;;;;5052652;28;20047;-69
2022/05/08 10:00:04;;;;;;;16.30;4.75;;;14.90;99.90;;;;;;5054407;28;20048;-68
2022/05/08 10:02:32;;;;;;;16.42;5.97;;;15.00;99.90;;;;;;5052529;28;20045;-58
2022/05/08 10:04:59;;;;;;;16.45;4.93;;;15.10;99.90;;;;;;5052773;28;20049;-62
2022/05/08 10:07:26;;;;;;;16.08;5.43;;;15.20;99.90;;;;;;5052168;28;20044;-68
2022/05/08 10:15:29;;;;;;;16.20;4.43;;;15.20;99.40;;;;;;5051930;28;20037;-65
2022/05/08 10:18:22;;;;;;;17.83;4.85;;;15.40;99.30;;;;;;5053115;28;20049;-62
2022/05/08 10:21:06;;;;;;;18.27;5.32;;;15.30;90.40;;;;;;5052106;28;20052;-62
2022/05/08 10:23:45;;;;;;;11.63;3.47;;;15.40;92.60;;;;;;5053725;28;20063;-62
2022/05/08 10:26:22;;;;;;;13.43;4.13;;;15.20;91.50;;;;;;5052528;28;20378;-62
2022/05/08 10:29:13;;;;;;;15.27;5.63;;;15.30;94.40;;;;;;5051801;28;20072;-62
2022/05/08 10:31:44;;;;;;;20.40;5.43;;;15.40;99.60;;;;;;5053867;28;20072;-62
2022/05/08 10:34:11;;;;;;;14.82;5.57;;;15.50;95.40;;;;;;5051645;28;20094;-62
2022/05/08 10:36:40;;;;;;;21.90;5.47;;;15.50;97.00;;;;;;5052074;28;20045;-62
2022/05/08 10:39:44;;;;;;;21.70;5.18;;;15.50;97.10;;;;;;5052960;28;20041;-62
2022/05/08 10:42:29;;;;;;;11.60;4.65;;;15.60;96.00;;;;;;5053429;28;20041;-65
2022/05/08 10:44:57;;;;;;;16.23;5.22;;;15.60;93.30;;;;;;5052696;28;20052;-64
2022/05/08 10:47:36;;;;;;;63.45;47.88;;;15.70;92.60;;;;;;5051693;28;20041;-66
2022/05/08 10:50:04;;;;;;;22.33;11.82;;;15.70;85.80;;;;;;5051403;28;20404;-65
2022/05/08 10:52:33;;;;;;;7.72;4.75;;;15.70;89.30;;;;;;5051331;28;20052;-68
2022/05/08 10:55:01;;;;;;;11.70;5.07;;;15.70;85.60;;;;;;5051349;28;20053;-62
2022/05/08 10:57:34;;;;;;;11.60;4.35;;;15.70;85.20;;;;;;5051328;28;20052;-64
2022/05/08 11:00:03;;;;;;;16.75;4.13;;;15.80;90.80;;;;;;5051293;28;20045;-63
2022/05/08 11:02:57;;;;;;;14.88;4.53;;;15.80;90.50;;;;;;5053328;28;20041;-64
2022/05/08 11:05:29;;;;;;;7.90;3.95;;;15.80;90.90;;;;;;5034826;28;20041;-65
2022/05/08 11:07:58;;;;;;;14.50;4.50;;;15.80;86.50;;;;;;5052385;28;20098;-64
2022/05/08 11:10:36;;;;;;;22.33;4.32;;;15.70;88.90;;;;;;5051537;28;20072;-64
2022/05/08 11:13:17;;;;;;;11.90;4.22;;;15.70;90.00;;;;;;5055097;28;20063;-70
2022/05/08 11:15:46;;;;;;;17.05;4.07;;;15.60;86.60;;;;;;5055194;28;20052;-69
2022/05/08 11:18:17;;;;;;;11.90;4.22;;;15.60;89.30;;;;;;5054719;28;20128;-72
2022/05/08 11:20:50;;;;;;;18.52;6.22;;;15.60;91.10;;;;;;5056982;28;20041;-65
2022/05/08 11:23:18;;;;;;;17.65;5.30;;;15.60;89.50;;;;;;5057007;28;20102;-65
2022/05/08 11:25:46;;;;;;;21.38;7.20;;;15.60;90.90;;;;;;5054921;28;20048;-66
2022/05/08 11:28:17;;;;;;;14.13;5.07;;;15.70;90.60;;;;;;5055741;28;20460;-63
2022/05/08 11:30:46;;;;;;;15.05;5.68;;;15.80;85.00;;;;;;5055065;28;20044;-64
2022/05/08 11:36:04;;;;;;;13.88;4.72;;;15.90;83.30;;;;;;5055537;28;20041;-66
2022/05/08 11:38:43;;;;;;;24.73;12.75;;;15.80;85.70;;;;;;5055139;28;20488;-65
2022/05/08 11:41:20;;;;;;;26.85;7.60;;;15.90;80.10;;;;;;5055792;28;20049;-65
2022/05/08 11:43:51;;;;;;;14.10;3.83;;;16.10;84.00;;;;;;5054604;28;20041;-65
2022/05/08 11:46:35;;;;;;;68.10;10.13;;;16.10;83.30;;;;;;5056118;28;20047;-64
2022/05/08 11:49:11;;;;;;;18.80;6.07;;;16.10;87.40;;;;;;5054156;28;20048;-61
2022/05/08 11:52:04;;;;;;;13.82;4.53;;;16.10;83.50;;;;;;5054668;28;20059;-63
2022/05/08 11:54:35;;;;;;;11.93;3.30;;;16.20;83.80;;;;;;5037358;28;20052;-65
2022/05/08 11:57:23;;;;;;;11.10;3.63;;;16.30;83.90;;;;;;5055925;28;20418;-64
2022/05/08 11:59:52;;;;;;;13.60;3.83;;;16.20;77.40;;;;;;5054045;28;20041;-64
2022/05/08 12:02:30;;;;;;;13.68;4.13;;;16.20;82.20;;;;;;5055513;28;20320;-64
2022/05/08 12:04:57;;;;;;;13.75;5.85;;;16.10;83.30;;;;;;5054508;28;20040;-64
2022/05/08 12:07:25;;;;;;;12.50;3.78;;;16.10;84.30;;;;;;5054612;28;20049;-64
2022/05/08 12:09:56;;;;;;;7.65;3.40;;;16.10;85.40;;;;;;5054091;28;20041;-64
2022/05/08 12:12:33;;;;;;;10.63;3.85;;;16.30;82.10;;;;;;5054075;28;20080;-64
2022/05/08 12:15:04;;;;;;;8.60;3.15;;;16.40;84.70;;;;;;5054715;28;20052;-65
2022/05/08 12:17:42;;;;;;;10.55;3.75;;;16.50;84.60;;;;;;5054698;28;20051;-65
2022/05/08 12:20:14;;;;;;;12.05;4.30;;;16.60;80.10;;;;;;5055437;28;20041;-64
2022/05/08 12:22:41;;;;;;;15.45;3.67;;;16.50;81.30;;;;;;5054577;28;20056;-65
2022/05/08 12:25:08;;;;;;;41.92;6.82;;;16.50;80.20;;;;;;5054317;28;20045;-64
2022/05/08 12:27:35;;;;;;;11.80;3.45;;;16.50;83.80;;;;;;5055174;28;20049;-62
2022/05/08 12:30:03;;;;;;;18.40;7.30;;;16.50;80.70;;;;;;5053646;28;20041;-61
2022/05/08 12:32:37;;;;;;;60.78;47.83;;;16.60;80.70;;;;;;5056256;28;20109;-68
2022/05/08 12:35:05;;;;;;;17.13;7.47;;;16.60;80.20;;;;;;5055187;28;20138;-63
2022/05/08 12:37:32;;;;;;;17.17;5.55;;;16.80;82.00;;;;;;5054383;28;20052;-63
2022/05/08 12:39:59;;;;;;;30.98;7.03;;;16.70;80.80;;;;;;5053715;28;20052;-63
2022/05/08 12:42:26;;;;;;;16.08;4.82;;;16.70;79.50;;;;;;5054906;28;20128;-62
2022/05/08 12:44:53;;;;;;;13.98;4.20;;;16.70;82.00;;;;;;5055338;28;20051;-63
2022/05/08 12:47:20;;;;;;;13.00;4.40;;;16.70;79.50;;;;;;5054050;28;20049;-63
2022/05/08 12:49:49;;;;;;;14.77;3.42;;;16.50;80.00;;;;;;5053133;28;20044;-63
2022/05/08 12:52:16;;;;;;;8.97;2.57;;;16.60;80.00;;;;;;5052908;28;20041;-64
2022/05/08 12:54:43;;;;;;;9.23;3.17;;;16.70;78.10;;;;;;5054581;28;20049;-63
2022/05/08 12:57:10;;;;;;;12.00;4.68;;;16.70;79.50;;;;;;5054775;28;20049;-62
2022/05/08 12:59:43;;;;;;;27.08;5.40;;;16.80;80.10;;;;;;5053818;28;20387;-65
2022/05/08 13:02:13;;;;;;;13.77;6.40;;;16.80;80.80;;;;;;5054155;28;20047;-60
2022/05/08 13:04:41;;;;;;;23.33;12.85;;;16.90;79.60;;;;;;5055301;28;20049;-63
2022/05/08 13:07:08;;;;;;;9.82;4.40;;;17.00;81.10;;;;;;5053617;28;20041;-63
2022/05/08 13:09:35;;;;;;;11.30;3.88;;;17.10;79.50;;;;;;5053751;28;20079;-63
2022/05/08 13:12:03;;;;;;;12.85;3.47;;;17.20;79.50;;;;;;5052886;28;20051;-64
2022/05/08 13:14:31;;;;;;;9.90;3.67;;;17.30;76.80;;;;;;5053653;28;20060;-63